createdAt,value
2022-08-08T00:46:57.498Z,25.50
2022-08-08T02:36:24.609Z,24.20
2022-08-08T03:22:57.211Z,24.10
2022-08-08T04:03:12.125Z,24.90
2022-08-08T04:07:17.134Z,24.90
2022-08-08T04:11:30.351Z,24.90
2022-08-08T04:15:55.223Z,25.00
2022-08-08T04:29:10.148Z,25.10
2022-08-08T04:42:15.991Z,25.20
2022-08-08T04:46:39.518Z,25.20
2022-08-08T04:50:48.561Z,25.30
2022-08-08T04:55:05.782Z,25.40
2022-08-08T04:59:09.901Z,25.50
2022-08-08T05:03:13.825Z,25.50
2022-08-08T05:07:22.414Z,25.50
2022-08-08T05:11:26.216Z,25.50
2022-08-08T05:16:55.154Z,25.50
2022-08-08T05:20:09.195Z,25.60
2022-08-08T05:28:57.085Z,25.80
2022-08-08T05:32:59.748Z,25.80
2022-08-08T05:37:18.811Z,25.90
2022-08-08T05:41:55.540Z,25.90
2022-08-08T05:46:07.785Z,26.00
2022-08-08T05:50:23.338Z,26.20
2022-08-08T05:54:49.705Z,26.20
2022-08-08T05:59:13.981Z,26.40
2022-08-08T06:03:42.641Z,26.50
2022-08-08T06:12:30.149Z,26.50
2022-08-08T06:21:11.513Z,26.80
2022-08-08T06:26:33.880Z,27.00
2022-08-08T06:44:45.636Z,27.30
2022-08-08T06:49:00.647Z,27.60
2022-08-08T06:58:35.105Z,28.00
2022-08-08T07:02:51.850Z,28.20
2022-08-08T07:06:59.930Z,28.40
2022-08-08T07:11:09.212Z,28.50
2022-08-08T07:16:06.297Z,28.70
2022-08-08T07:20:28.234Z,29.00
2022-08-08T07:24:44.829Z,29.10
2022-08-08T07:28:51.874Z,29.50
2022-08-08T07:33:02.148Z,29.50
2022-08-08T07:37:12.156Z,29.20
2022-08-08T07:41:24.976Z,29.20
2022-08-08T07:45:34.851Z,29.10
2022-08-08T07:49:57.493Z,29.00
2022-08-08T07:54:15.857Z,29.30
2022-08-08T07:58:53.577Z,29.40
2022-08-08T08:03:20.385Z,29.10
2022-08-08T08:07:40.602Z,28.80
2022-08-08T08:11:55.004Z,28.50
2022-08-08T08:16:17.567Z,28.40
2022-08-08T08:29:16.632Z,28.20
2022-08-08T08:38:13.123Z,28.10
2022-08-08T08:46:31.951Z,28.40
2022-08-08T08:50:37.060Z,28.50
2022-08-08T08:59:08.943Z,28.90
2022-08-08T09:03:46.565Z,29.20
2022-08-08T09:08:12.669Z,29.40
2022-08-08T09:12:20.263Z,29.50
2022-08-08T09:16:26.724Z,29.70
2022-08-08T09:22:02.130Z,29.70
2022-08-08T09:25:07.934Z,29.80
2022-08-08T09:29:26.138Z,29.80
2022-08-08T09:34:16.163Z,29.90
2022-08-08T09:38:04.314Z,29.90
2022-08-08T09:42:20.380Z,30.20
2022-08-08T09:46:31.093Z,30.50
2022-08-08T09:50:35.686Z,30.60
2022-08-08T09:54:49.485Z,30.50
2022-08-08T09:59:15.233Z,30.50
2022-08-08T10:03:31.616Z,30.60
2022-08-08T10:12:26.447Z,30.70
2022-08-08T10:25:15.751Z,30.70
2022-08-08T10:29:59.127Z,30.60
2022-08-08T10:34:17.979Z,30.40
2022-08-08T10:38:25.346Z,30.30
2022-08-08T10:42:37.369Z,30.30
2022-08-08T10:46:41.413Z,30.50
2022-08-08T10:50:44.871Z,30.70
2022-08-08T10:55:09.803Z,30.80
2022-08-08T10:59:15.059Z,31.00
2022-08-08T11:03:36.983Z,31.30
2022-08-08T11:08:31.708Z,31.50
2022-08-08T11:16:42.831Z,31.70
2022-08-08T11:20:52.238Z,32.00
2022-08-08T11:25:01.123Z,32.30
2022-08-08T11:29:06.097Z,32.60
2022-08-08T11:33:12.409Z,32.80
2022-08-08T11:37:16.863Z,32.60
2022-08-08T12:12:27.222Z,28.60
2022-08-08T12:20:53.332Z,27.70
2022-08-08T12:24:56.916Z,27.00
2022-08-08T12:28:59.695Z,26.10
2022-08-08T12:33:22.929Z,25.50
2022-08-08T12:38:08.843Z,25.30
2022-08-08T12:42:20.652Z,25.20
2022-08-08T12:46:24.922Z,25.20
2022-08-08T12:50:46.794Z,25.20
2022-08-08T12:55:01.138Z,25.30
2022-08-08T12:59:27.143Z,25.20
2022-08-08T13:03:34.351Z,25.10
2022-08-08T13:08:04.156Z,25.20
2022-08-08T13:12:47.126Z,25.30
2022-08-08T13:16:52.807Z,25.50
2022-08-08T13:21:04.313Z,25.70
2022-08-08T13:29:48.003Z,26.40
2022-08-08T13:33:54.731Z,27.00
2022-08-08T13:38:08.214Z,27.80
2022-08-08T13:46:37.815Z,28.70
2022-08-08T13:50:53.636Z,28.70
2022-08-08T13:59:33.167Z,29.00
2022-08-08T14:03:52.152Z,29.20
2022-08-08T14:08:01.802Z,29.40
2022-08-08T14:12:20.046Z,29.20
2022-08-08T14:20:57.731Z,29.50
2022-08-08T14:25:15.344Z,30.00
2022-08-08T14:38:34.704Z,30.60
2022-08-08T14:42:54.432Z,30.80
2022-08-08T14:51:20.136Z,30.80
2022-08-08T14:55:35.278Z,30.80
2022-08-08T14:59:52.526Z,31.00
2022-08-08T15:04:08.327Z,31.10
2022-08-08T15:08:21.668Z,31.20
2022-08-08T15:12:27.772Z,31.50
2022-08-08T15:16:34.554Z,31.60
2022-08-08T15:20:38.374Z,31.70
2022-08-08T15:24:50.072Z,32.00
2022-08-08T15:28:54.102Z,32.20
2022-08-08T15:32:57.437Z,32.40
2022-08-08T15:37:03.582Z,32.40
2022-08-08T15:41:07.898Z,32.60
2022-08-08T15:45:11.127Z,32.90
2022-08-08T15:49:14.311Z,33.00
2022-08-08T15:53:22.464Z,33.30
2022-08-08T15:57:25.438Z,33.50
2022-08-08T16:01:40.459Z,33.30
2022-08-08T16:06:01.045Z,33.30
2022-08-08T16:14:32.897Z,33.70
2022-08-08T16:18:37.206Z,34.10
2022-08-08T16:22:41.745Z,34.10
2022-08-08T16:26:45.816Z,34.60
2022-08-08T16:30:53.618Z,34.70
2022-08-08T16:34:58.113Z,34.60
2022-08-08T16:39:09.836Z,34.80
2022-08-08T16:43:20.399Z,34.60
2022-08-08T16:47:40.671Z,35.00
2022-08-08T16:55:03.625Z,35.60
2022-08-08T16:56:15.328Z,36.20
2022-08-08T17:00:26.911Z,36.40
2022-08-08T17:05:01.164Z,36.50
2022-08-08T17:09:07.701Z,36.60
2022-08-08T17:13:19.241Z,36.70
2022-08-08T17:17:41.316Z,36.50
2022-08-08T17:21:53.301Z,36.40
2022-08-08T17:25:57.321Z,36.50
2022-08-08T17:30:13.551Z,36.60
2022-08-08T17:34:49.034Z,36.60
2022-08-08T17:38:52.602Z,36.10
2022-08-08T17:42:56.629Z,35.50
2022-08-08T17:47:09.664Z,34.70
2022-08-08T17:51:12.572Z,34.10
2022-08-08T17:56:03.870Z,33.80
2022-08-08T17:59:45.736Z,33.50
2022-08-08T18:03:49.448Z,32.40
2022-08-08T18:08:01.929Z,31.50
2022-08-08T18:12:12.721Z,30.60
2022-08-08T18:16:22.885Z,29.90
2022-08-08T18:20:37.164Z,29.20
2022-08-08T18:24:49.716Z,28.70
2022-08-08T18:28:55.355Z,28.30
2022-08-08T18:32:58.314Z,27.80
2022-08-08T18:37:08.192Z,27.30
2022-08-08T18:41:11.477Z,26.90
2022-08-08T18:46:53.377Z,26.60
2022-08-08T18:49:57.343Z,26.50
2022-08-08T18:54:05.784Z,26.40
2022-08-08T19:03:06.296Z,26.10
2022-08-08T19:11:27.729Z,25.80
2022-08-08T19:20:03.143Z,25.50
2022-08-08T19:24:33.998Z,25.20
2022-08-08T19:28:32.145Z,25.00
2022-08-08T19:32:39.514Z,24.90
2022-08-08T19:36:45.447Z,24.80
2022-08-08T19:40:55.910Z,24.60
2022-08-08T19:45:05.474Z,24.60
2022-08-08T19:49:11.715Z,24.50
2022-08-08T19:53:21.989Z,24.50
2022-08-08T19:57:47.417Z,24.40
2022-08-08T20:15:14.189Z,23.80
2022-08-08T20:19:34.691Z,23.80
2022-08-08T20:23:46.322Z,23.70
2022-08-08T20:27:53.891Z,23.60
2022-08-08T20:32:10.450Z,23.50
2022-08-08T20:36:23.395Z,23.50
2022-08-08T20:40:33.638Z,23.40
2022-08-08T20:44:42.453Z,23.20
2022-08-08T20:48:45.352Z,23.20
2022-08-08T20:57:17.153Z,23.00
2022-08-08T21:01:22.629Z,23.00
2022-08-08T21:05:31.796Z,23.10
2022-08-08T21:10:01.429Z,23.30
2022-08-08T21:13:58.387Z,23.60
2022-08-08T21:18:05.618Z,24.00
2022-08-08T21:22:09.151Z,24.20
2022-08-08T21:26:13.083Z,24.50
2022-08-08T21:30:32.303Z,24.70
2022-08-08T21:34:36.709Z,24.90
2022-08-08T21:43:00.123Z,25.10
2022-08-08T21:48:06.605Z,25.20
2022-08-08T21:54:18.101Z,25.40
2022-08-08T21:56:24.466Z,25.40
2022-08-08T22:00:26.135Z,25.40
2022-08-08T22:04:29.086Z,25.40
2022-08-08T22:08:37.364Z,25.40
2022-08-08T22:12:52.578Z,25.30
2022-08-08T22:17:00.881Z,25.10
2022-08-08T22:21:14.172Z,24.90
2022-08-08T22:25:25.309Z,24.70
2022-08-08T22:34:13.364Z,23.90
2022-08-08T22:38:13.361Z,23.70
2022-08-08T22:42:27.208Z,23.90
2022-08-08T22:46:39.832Z,24.10
2022-08-08T22:50:44.159Z,24.30
2022-08-08T22:54:53.884Z,24.50
2022-08-08T22:59:11.768Z,24.70
2022-08-08T23:03:14.999Z,24.90
2022-08-08T23:16:41.230Z,25.20
2022-08-08T23:20:00.773Z,25.30
2022-08-08T23:24:03.745Z,25.30
2022-08-08T23:28:06.830Z,25.30
2022-08-08T23:32:10.501Z,25.30
2022-08-08T23:36:13.967Z,25.30
2022-08-08T23:40:21.990Z,25.30
2022-08-08T23:44:25.664Z,25.20
2022-08-08T23:49:05.325Z,25.20
2022-08-08T23:52:53.883Z,25.00
2022-08-08T23:56:57.556Z,25.00
